Time;durP1;ratioP1;P1;durP2;ratioP2;P2;SDS_P1;SDS_P2;PMS_P1;PMS_P2;Temp;Humidity;BMP_temperature;BMP_pressure;BME280_temperature;BME280_humidity;BME280_pressure;Samples;Min_cycle;Max_cycle;Signal;HPM_P1;HPM_P2
2023/08/11 00:01:18;;;;;;;1.20;0.40;;;;;;;14.56;100.00;100639.94;5020171;28;20382;-57
2023/08/11 00:03:48;;;;;;;3.00;0.40;;;;;;;14.60;100.00;100657.38;5030404;28;20378;-57
2023/08/11 00:06:19;;;;;;;2.37;0.50;;;;;;;14.63;100.00;100643.28;5019271;28;20791;-55
2023/08/11 00:08:49;;;;;;;1.23;0.30;;;;;;;14.60;100.00;100636.34;5030091;28;20322;-56
2023/08/11 00:11:20;;;;;;;2.07;0.40;;;;;;;14.70;100.00;100633.44;5021516;28;20741;-56
2023/08/11 00:13:51;;;;;;;2.10;0.40;;;;;;;14.71;100.00;100627.28;5027877;28;20272;-55
2023/08/11 00:16:25;;;;;;;0.30;0.30;;;;;;;14.72;100.00;100610.59;5031220;28;20357;-56
2023/08/11 00:18:57;;;;;;;1.13;0.40;;;;;;;14.82;100.00;100612.03;5023992;28;20645;-56
2023/08/11 00:21:27;;;;;;;0.33;0.30;;;;;;;14.88;100.00;100606.63;5035795;28;20660;-57
2023/08/11 00:23:58;;;;;;;0.30;0.30;;;;;;;14.91;100.00;100609.16;5024446;28;20280;-56
2023/08/11 00:26:30;;;;;;;0.67;0.37;;;;;;;15.03;100.00;100608.81;5034733;28;20285;-55
2023/08/11 00:29:00;;;;;;;0.70;0.50;;;;;;;15.09;100.00;100603.34;5022603;28;20750;-56
2023/08/11 00:31:33;;;;;;;1.33;0.40;;;;;;;15.18;100.00;100601.38;5035341;28;20283;-56
2023/08/11 00:34:03;;;;;;;0.87;0.50;;;;;;;15.23;100.00;100610.00;5023810;28;20318;-55
2023/08/11 00:36:34;;;;;;;4.20;0.50;;;;;;;15.25;100.00;100610.78;5034100;28;20291;-57
2023/08/11 00:39:04;;;;;;;1.50;0.40;;;;;;;15.27;100.00;100607.19;5024511;28;20287;-56
2023/08/11 00:41:35;;;;;;;0.37;0.30;;;;;;;15.27;100.00;100611.59;5032917;28;20282;-56
2023/08/11 00:44:06;;;;;;;0.43;0.40;;;;;;;15.23;100.00;100617.91;5022730;28;20362;-56
2023/08/11 00:46:39;;;;;;;1.00;0.30;;;;;;;15.23;100.00;100620.53;5035211;28;20283;-57
2023/08/11 00:49:09;;;;;;;0.97;0.30;;;;;;;15.23;100.00;100599.47;5024651;28;20396;-57
2023/08/11 00:51:40;;;;;;;0.37;0.30;;;;;;;15.25;100.00;100597.63;5033907;28;20764;-57
2023/08/11 00:54:13;;;;;;;0.97;0.30;;;;;;;15.36;100.00;100598.19;5022976;28;21342;-56
2023/08/11 00:56:47;;;;;;;1.77;0.50;;;;;;;15.21;100.00;100559.16;5033560;28;20369;-56
2023/08/11 00:59:19;;;;;;;1.47;0.40;;;;;;;15.46;100.00;100607.50;5023213;28;20812;-56
2023/08/11 01:01:51;;;;;;;0.30;0.30;;;;;;;15.41;100.00;100604.16;5032844;28;20295;-56
2023/08/11 01:04:22;;;;;;;0.30;0.30;;;;;;;15.01;100.00;100552.72;5016140;28;20295;-53
2023/08/11 01:07:04;;;;;;;0.97;0.30;;;;;;;15.47;100.00;100603.94;5021983;28;20360;-57
2023/08/11 01:09:44;;;;;;;0.73;0.33;;;;;;;15.53;100.00;100616.09;5032089;28;20376;-57
2023/08/11 01:12:25;;;;;;;1.38;0.35;;;;;;;15.45;100.00;100611.06;5023286;28;21157;-56
2023/08/11 01:15:05;;;;;;;0.60;0.30;;;;;;;15.29;100.00;100578.19;5022092;28;20052;-57
2023/08/11 01:17:40;;;;;;;0.57;0.40;;;;;;;15.52;100.00;100631.03;5019981;28;20378;-56
2023/08/11 01:20:15;;;;;;;2.57;0.40;;;;;;;15.54;100.00;100630.97;5022743;28;20276;-58
2023/08/11 01:22:48;;;;;;;1.47;0.50;;;;;;;15.61;100.00;100626.38;5025478;28;20288;-57
2023/08/11 01:25:22;;;;;;;0.97;0.50;;;;;;;15.62;100.00;100622.81;5023498;28;20295;-57
2023/08/11 01:27:57;;;;;;;0.50;0.47;;;;;;;15.73;100.00;100620.75;5026229;28;20374;-57
2023/08/11 01:30:29;;;;;;;1.73;0.47;;;;;;;15.84;100.00;100639.72;5034976;28;20332;-59
2023/08/11 01:33:00;;;;;;;0.57;0.40;;;;;;;15.82;100.00;100636.25;5022723;28;20376;-57
2023/08/11 01:35:31;;;;;;;0.80;0.60;;;;;;;15.81;100.00;100637.19;5032589;28;20276;-57
2023/08/11 01:38:11;;;;;;;2.07;0.77;;;;;;;15.78;100.00;100634.66;5021395;28;20359;-57
2023/08/11 01:40:44;;;;;;;3.43;0.60;;;;;;;15.76;100.00;100620.66;5032185;28;20470;-58
2023/08/11 01:43:15;;;;;;;1.00;0.50;;;;;;;15.65;100.00;100614.81;5022186;28;20286;-56
2023/08/11 01:45:48;;;;;;;1.27;0.50;;;;;;;15.79;100.00;100617.91;5032686;28;20283;-58
2023/08/11 01:48:21;;;;;;;3.30;0.70;;;;;;;15.86;100.00;100630.00;5004098;28;20337;-56
2023/08/11 01:50:52;;;;;;;1.47;0.70;;;;;;;15.77;100.00;100619.72;5018886;28;20315;-57
2023/08/11 01:53:22;;;;;;;1.20;0.60;;;;;;;15.74;100.00;100609.31;5029521;28;20363;-55
2023/08/11 01:55:55;;;;;;;2.33;0.80;;;;;;;15.70;100.00;100610.28;5023331;28;20310;-57
2023/08/11 01:58:26;;;;;;;1.00;0.60;;;;;;;15.89;100.00;100615.84;5032024;28;20284;-57
2023/08/11 02:00:56;;;;;;;1.37;0.53;;;;;;;15.90;100.00;100623.72;5032469;28;20396;-57
2023/08/11 02:03:27;;;;;;;0.87;0.60;;;;;;;15.83;100.00;100616.91;5033525;28;20270;-58
2023/08/11 02:05:58;;;;;;;1.27;0.63;;;;;;;15.89;100.00;100606.16;5023433;28;20279;-58
2023/08/11 02:08:29;;;;;;;2.13;0.60;;;;;;;15.99;100.00;100596.19;5031389;28;20298;-56
2023/08/11 02:11:00;;;;;;;4.27;0.80;;;;;;;16.02;100.00;100595.22;5021592;28;20360;-55
2023/08/11 02:13:33;;;;;;;1.53;0.60;;;;;;;16.08;100.00;100610.84;5032948;28;20291;-58
2023/08/11 02:16:03;;;;;;;0.93;0.60;;;;;;;16.01;100.00;100604.06;5023028;28;20310;-59
2023/08/11 02:18:34;;;;;;;2.03;0.60;;;;;;;16.00;100.00;100607.56;5032323;28;20738;-58
2023/08/11 02:21:06;;;;;;;1.37;0.70;;;;;;;15.99;100.00;100600.59;5018701;28;20404;-58
2023/08/11 02:23:37;;;;;;;0.90;0.50;;;;;;;15.95;100.00;100605.97;5031874;28;20297;-58
2023/08/11 02:26:09;;;;;;;1.63;0.50;;;;;;;16.08;100.00;100605.56;5021315;28;20369;-57
2023/08/11 02:28:39;;;;;;;2.33;0.70;;;;;;;16.04;100.00;100598.66;5032032;28;20291;-57
2023/08/11 02:31:10;;;;;;;4.00;0.90;;;;;;;16.01;100.00;100599.63;5021839;28;20254;-58
2023/08/11 02:33:41;;;;;;;2.97;0.70;;;;;;;16.04;100.00;100603.94;5030864;28;20291;-58
2023/08/11 02:36:12;;;;;;;3.63;0.80;;;;;;;16.02;100.00;100603.13;5022698;28;20297;-59
2023/08/11 02:38:43;;;;;;;1.53;0.80;;;;;;;15.99;100.00;100603.22;5031195;28;20649;-57
2023/08/11 02:41:16;;;;;;;4.43;0.70;;;;;;;15.93;100.00;100597.25;5021356;28;20287;-56
2023/08/11 02:43:46;;;;;;;1.13;0.67;;;;;;;16.04;100.00;100614.47;5032646;28;20372;-57
2023/08/11 02:46:18;;;;;;;1.27;0.60;;;;;;;16.25;100.00;100619.03;5020006;28;20307;-57
2023/08/11 02:48:49;;;;;;;3.70;1.00;;;;;;;16.62;100.00;100607.19;5032666;28;20357;-58
2023/08/11 02:51:19;;;;;;;1.53;0.60;;;;;;;16.88;100.00;100615.97;5019714;28;20299;-58
2023/08/11 02:53:51;;;;;;;2.27;0.77;;;;;;;16.97;100.00;100607.69;5031590;28;20287;-55
2023/08/11 02:56:23;;;;;;;1.93;0.60;;;;;;;16.96;100.00;100611.28;5020224;28;20664;-58
2023/08/11 02:58:56;;;;;;;1.40;0.60;;;;;;;16.96;100.00;100616.56;5031176;28;20366;-58
2023/08/11 03:01:27;;;;;;;1.43;0.60;;;;;;;16.98;100.00;100605.00;5030800;28;20388;-57
2023/08/11 03:03:59;;;;;;;5.17;0.60;;;;;;;17.02;100.00;100621.59;5019063;28;20297;-59
2023/08/11 03:06:30;;;;;;;0.80;0.50;;;;;;;16.97;100.00;100628.81;5042083;28;20363;-57
2023/08/11 03:09:00;;;;;;;0.77;0.60;;;;;;;16.91;100.00;100626.41;5042877;28;20669;-57
2023/08/11 03:11:32;;;;;;;1.03;0.50;;;;;;;16.86;100.00;100636.28;5030223;28;20315;-57
2023/08/11 03:14:03;;;;;;;0.57;0.30;;;;;;;16.84;100.00;100627.56;5021258;28;20270;-57
2023/08/11 03:16:34;;;;;;;0.50;0.40;;;;;;;16.71;100.00;100617.41;5031447;28;20351;-57
2023/08/11 03:19:04;;;;;;;1.87;0.67;;;;;;;16.64;100.00;100631.75;5020624;28;20282;-57
2023/08/11 03:21:35;;;;;;;1.10;0.60;;;;;;;16.77;100.00;100637.44;5031595;28;20286;-56
2023/08/11 03:24:07;;;;;;;1.47;0.70;;;;;;;16.94;100.00;100639.50;5020196;28;20291;-58
2023/08/11 03:26:39;;;;;;;0.80;0.50;;;;;;;16.84;100.00;100603.81;5031659;28;20301;-58
2023/08/11 03:29:09;;;;;;;0.80;0.50;;;;;;;17.11;100.00;100647.66;5021514;28;20314;-59
2023/08/11 03:31:40;;;;;;;1.80;1.00;;;;;;;17.03;100.00;100641.81;5030312;28;20291;-58
2023/08/11 03:34:10;;;;;;;0.63;0.50;;;;;;;17.00;100.00;100639.28;5020191;28;20707;-59
2023/08/11 03:36:41;;;;;;;0.43;0.40;;;;;;;16.94;100.00;100635.06;5029879;28;20767;-57
2023/08/11 03:39:11;;;;;;;0.40;0.40;;;;;;;16.95;100.00;100646.53;5019392;28;20709;-59
2023/08/11 03:41:44;;;;;;;3.50;0.50;;;;;;;16.94;100.00;100655.34;5030186;28;20284;-58
2023/08/11 03:44:14;;;;;;;0.50;0.40;;;;;;;16.80;100.00;100627.69;5021605;28;20735;-57
2023/08/11 03:46:45;;;;;;;1.10;0.50;;;;;;;17.11;100.00;100663.50;5030422;28;20294;-57
2023/08/11 03:49:16;;;;;;;0.90;0.50;;;;;;;17.29;100.00;100655.81;5020721;28;20378;-57
2023/08/11 03:51:47;;;;;;;0.40;0.40;;;;;;;17.37;100.00;100651.97;5029787;28;20271;-59
2023/08/11 03:54:19;;;;;;;0.77;0.60;;;;;;;17.38;100.00;100660.75;5019525;28;20466;-56
2023/08/11 03:57:06;;;;;;;1.10;0.50;;;;;;;17.40;99.13;100664.19;5019835;28;20276;-60
2023/08/11 03:59:36;;;;;;;1.37;0.60;;;;;;;17.44;99.97;100660.50;5031656;28;20371;-59
2023/08/11 04:02:07;;;;;;;1.53;0.80;;;;;;;17.55;100.00;100660.97;5020223;28;20290;-58
2023/08/11 04:04:39;;;;;;;1.23;0.53;;;;;;;17.48;99.38;100662.13;5029439;28;20307;-59
2023/08/11 04:07:09;;;;;;;1.90;0.70;;;;;;;17.43;98.73;100678.13;5021089;28;20306;-57
2023/08/11 04:09:43;;;;;;;1.30;0.80;;;;;;;17.39;100.00;100673.88;5030481;28;20375;-57
2023/08/11 04:12:16;;;;;;;0.47;0.47;;;;;;;17.27;100.00;100652.34;5020955;28;20320;-59
2023/08/11 04:14:46;;;;;;;1.40;0.40;;;;;;;17.32;100.00;100660.97;5028644;28;20341;-60
2023/08/11 04:17:17;;;;;;;1.13;0.77;;;;;;;17.33;99.11;100678.56;5020766;28;20369;-57
2023/08/11 04:19:48;;;;;;;0.80;0.60;;;;;;;17.23;100.00;100678.03;5030931;28;20290;-58
2023/08/11 04:22:19;;;;;;;0.70;0.50;;;;;;;17.20;99.30;100679.00;5020218;28;20377;-56
2023/08/11 04:25:06;;;;;;;0.80;0.70;;;;;;;17.33;100.00;100673.28;5020371;28;20283;-58
2023/08/11 04:27:39;;;;;;;2.77;0.70;;;;;;;17.37;99.83;100681.03;5030307;28;20275;-58
2023/08/11 04:30:12;;;;;;;4.00;0.80;;;;;;;17.27;99.79;100663.78;5019026;28;20400;-61
2023/08/11 04:32:43;;;;;;;2.73;0.60;;;;;;;17.23;100.00;100670.13;5030280;28;20303;-58
2023/08/11 04:35:14;;;;;;;7.43;0.50;;;;;;;17.23;100.00;100664.84;5019323;28;20338;-58
2023/08/11 04:37:44;;;;;;;1.33;0.50;;;;;;;17.37;100.00;100677.50;5030525;28;20271;-58
2023/08/11 04:40:15;;;;;;;1.47;0.80;;;;;;;17.41;98.99;100681.75;5020111;28;20376;-57
2023/08/11 04:42:48;;;;;;;1.50;0.67;;;;;;;17.21;100.00;100685.16;5029919;28;20284;-58
2023/08/11 04:45:18;;;;;;;2.43;0.67;;;;;;;17.19;99.07;100682.56;5018830;28;20394;-58
2023/08/11 04:47:49;;;;;;;1.90;0.70;;;;;;;17.08;100.00;100694.44;5030930;28;20309;-58
2023/08/11 04:50:20;;;;;;;1.03;0.60;;;;;;;16.99;100.00;100687.72;5019947;28;20403;-56
2023/08/11 04:52:51;;;;;;;2.73;0.80;;;;;;;17.11;100.00;100689.91;5030060;28;20384;-59
2023/08/11 04:55:21;;;;;;;1.33;0.60;;;;;;;17.09;100.00;100691.72;5017920;28;20319;-58
2023/08/11 04:57:54;;;;;;;1.37;0.50;;;;;;;17.17;100.00;100694.97;5024623;28;20283;-57
2023/08/11 05:00:25;;;;;;;1.23;0.60;;;;;;;17.31;100.00;100691.81;5030404;28;20282;-58
2023/08/11 05:02:56;;;;;;;0.83;0.47;;;;;;;17.42;100.00;100699.31;5021206;28;20290;-55
2023/08/11 05:05:26;;;;;;;1.43;0.60;;;;;;;17.56;100.00;100681.16;5033503;28;20280;-58
2023/08/11 05:07:57;;;;;;;0.83;0.50;;;;;;;17.61;100.00;100684.50;5023407;28;20362;-58
2023/08/11 05:10:28;;;;;;;0.53;0.50;;;;;;;17.67;99.13;100673.69;5033170;28;20280;-57
2023/08/11 05:13:00;;;;;;;0.50;0.43;;;;;;;17.65;100.00;100675.53;5024872;28;20322;-56
2023/08/11 05:15:31;;;;;;;1.20;0.50;;;;;;;17.69;98.27;100682.41;5033537;28;20749;-57
2023/08/11 05:18:02;;;;;;;0.57;0.40;;;;;;;17.68;98.76;100691.25;5022336;28;20385;-59
2023/08/11 05:20:32;;;;;;;0.70;0.40;;;;;;;17.59;95.04;100694.25;5032061;28;20302;-58
2023/08/11 05:23:03;;;;;;;0.57;0.50;;;;;;;17.68;98.00;100685.97;5024461;28;20373;-58
2023/08/11 05:25:34;;;;;;;0.47;0.37;;;;;;;17.71;95.92;100689.44;5031275;28;20315;-56
2023/08/11 05:28:06;;;;;;;1.30;0.57;;;;;;;17.66;98.61;100693.09;5022477;28;20375;-59
2023/08/11 05:30:37;;;;;;;0.67;0.40;;;;;;;17.71;98.85;100689.44;5030610;28;20297;-58
2023/08/11 05:33:08;;;;;;;0.53;0.40;;;;;;;17.66;94.76;100693.09;5021823;28;20353;-59
2023/08/11 05:35:40;;;;;;;2.20;0.40;;;;;;;17.55;95.92;100697.94;5032370;28;20280;-58
2023/08/11 05:38:11;;;;;;;1.57;0.40;;;;;;;17.62;95.23;100702.09;5022037;28;20389;-58
2023/08/11 05:40:44;;;;;;;2.10;0.40;;;;;;;17.58;95.85;100700.47;5032875;28;20381;-57
2023/08/11 05:43:16;;;;;;;0.50;0.40;;;;;;;17.65;95.04;100707.25;5021181;28;20287;-58
2023/08/11 05:45:47;;;;;;;1.10;0.43;;;;;;;17.72;95.62;100707.84;5033847;28;20406;-59
2023/08/11 05:48:18;;;;;;;2.93;0.53;;;;;;;17.79;96.39;100697.91;5020931;28;20787;-56
2023/08/11 05:50:50;;;;;;;0.67;0.37;;;;;;;17.75;95.21;100706.91;5032048;28;20287;-57
2023/08/11 05:53:20;;;;;;;0.97;0.40;;;;;;;17.57;93.98;100682.91;5021667;28;20283;-56
2023/08/11 05:55:51;;;;;;;0.50;0.37;;;;;;;17.36;96.40;100715.41;5030369;28;20684;-56
2023/08/11 05:58:24;;;;;;;0.63;0.60;;;;;;;17.19;97.37;100708.97;5033480;28;20293;-57
2023/08/11 06:00:54;;;;;;;0.70;0.40;;;;;;;17.21;97.69;100706.28;5021885;28;20282;-56
2023/08/11 06:03:30;;;;;;;1.97;0.50;;;;;;;17.21;97.75;100722.13;5031747;28;20301;-57
2023/08/11 06:06:05;;;;;;;0.97;0.40;;;;;;;17.19;98.43;100724.81;5022722;28;20303;-57
2023/08/11 06:08:35;;;;;;;2.80;0.50;;;;;;;17.07;99.79;100719.97;5031496;28;20402;-57
2023/08/11 06:11:06;;;;;;;0.73;0.40;;;;;;;16.99;100.00;100722.88;5021668;28;20322;-57
2023/08/11 06:13:39;;;;;;;1.27;0.47;;;;;;;17.09;100.00;100723.41;5032466;28;20283;-57
2023/08/11 06:16:09;;;;;;;1.07;0.60;;;;;;;17.00;100.00;100718.50;5022982;28;20361;-58
2023/08/11 06:18:40;;;;;;;1.03;0.40;;;;;;;17.01;100.00;100728.13;5031877;28;20279;-57
2023/08/11 06:21:11;;;;;;;1.13;0.63;;;;;;;17.10;100.00;100730.44;5021561;28;20306;-57
2023/08/11 06:23:41;;;;;;;0.43;0.37;;;;;;;17.13;100.00;100735.59;5032709;28;20298;-55
2023/08/11 06:26:12;;;;;;;0.30;0.30;;;;;;;17.10;100.00;100729.56;5021718;28;21879;-57
2023/08/11 06:28:44;;;;;;;2.43;0.40;;;;;;;17.08;100.00;100745.47;5031140;28;20606;-58
2023/08/11 06:31:15;;;;;;;2.60;0.40;;;;;;;17.12;100.00;100744.41;5023126;28;20287;-58
2023/08/11 06:33:46;;;;;;;0.67;0.40;;;;;;;17.23;100.00;100742.28;5031890;28;20286;-58
2023/08/11 06:36:17;;;;;;;1.20;0.30;;;;;;;17.33;100.00;100737.50;5022351;28;20364;-57
2023/08/11 06:38:47;;;;;;;1.13;0.43;;;;;;;17.27;100.00;100732.44;5031396;28;20282;-57
2023/08/11 06:41:18;;;;;;;1.53;0.30;;;;;;;17.27;100.00;100736.88;5022185;28;20302;-57
2023/08/11 06:43:50;;;;;;;2.43;0.43;;;;;;;17.25;99.02;100740.44;5031548;28;20350;-56
2023/08/11 06:46:21;;;;;;;0.87;0.40;;;;;;;17.35;99.59;100748.03;5023053;28;20327;-56
2023/08/11 06:48:51;;;;;;;0.30;0.30;;;;;;;17.54;97.81;100746.41;5029528;28;20284;-57
2023/08/11 06:51:22;;;;;;;2.73;0.40;;;;;;;17.85;94.15;100750.59;5032162;28;20845;-57
2023/08/11 06:53:52;;;;;;;0.20;0.20;;;;;;;17.87;90.65;100756.66;5021981;28;20284;-58
2023/08/11 06:56:23;;;;;;;0.30;0.30;;;;;;;17.72;92.66;100749.28;5031658;28;20594;-58
2023/08/11 06:58:55;;;;;;;0.60;0.30;;;;;;;17.69;92.78;100740.53;5022699;28;20271;-56
2023/08/11 07:01:26;;;;;;;0.20;0.20;;;;;;;17.62;89.36;100741.72;5032842;28;20295;-57
2023/08/11 07:03:57;;;;;;;2.13;0.33;;;;;;;17.47;90.03;100750.19;5022348;28;20368;-58
2023/08/11 07:06:30;;;;;;;2.00;0.40;;;;;;;17.23;90.38;100749.34;5031349;28;20752;-59
2023/08/11 07:09:01;;;;;;;0.20;0.20;;;;;;;17.10;90.75;100756.84;5020016;28;20370;-57
2023/08/11 07:11:31;;;;;;;0.30;0.30;;;;;;;16.96;91.46;100740.63;5030559;28;20792;-58
2023/08/11 07:14:03;;;;;;;1.47;0.40;;;;;;;16.95;93.42;100746.81;5022107;28;20318;-58
2023/08/11 07:16:34;;;;;;;1.03;0.30;;;;;;;16.95;92.38;100757.38;5030230;28;20302;-60
2023/08/11 07:19:04;;;;;;;1.03;0.40;;;;;;;16.81;91.66;100750.78;5033286;28;20286;-59
2023/08/11 07:21:35;;;;;;;0.30;0.30;;;;;;;16.74;92.89;100758.94;5053296;28;20341;-58
2023/08/11 07:24:06;;;;;;;0.83;0.30;;;;;;;16.68;93.02;100764.44;5041706;28;20336;-58
2023/08/11 07:26:37;;;;;;;0.53;0.27;;;;;;;16.68;94.01;100767.94;5048337;28;20274;-59
2023/08/11 07:29:09;;;;;;;0.67;0.40;;;;;;;16.68;93.70;100767.06;5026302;28;20741;-59
2023/08/11 07:31:40;;;;;;;1.40;0.40;;;;;;;16.45;93.84;100741.44;5034573;28;20282;-58
2023/08/11 07:34:10;;;;;;;0.50;0.37;;;;;;;16.53;94.28;100765.81;5034797;28;20361;-58
2023/08/11 07:36:43;;;;;;;0.37;0.37;;;;;;;16.50;93.96;100786.97;5037664;28;20345;-59
2023/08/11 07:39:13;;;;;;;0.37;0.37;;;;;;;16.51;95.72;100799.28;5022626;28;20299;-61
2023/08/11 07:41:46;;;;;;;0.33;0.33;;;;;;;16.52;95.31;100790.44;5043898;28;20275;-60
2023/08/11 07:44:19;;;;;;;1.40;0.30;;;;;;;16.56;95.52;100802.63;5038108;28;20741;-61
2023/08/11 07:46:49;;;;;;;0.47;0.27;;;;;;;16.46;96.14;100790.66;5044356;28;20349;-59
2023/08/11 07:49:20;;;;;;;1.00;0.50;;;;;;;16.53;97.51;100805.38;5034178;28;20282;-60
2023/08/11 07:51:51;;;;;;;0.37;0.30;;;;;;;16.54;97.46;100804.44;5050334;28;20295;-60
2023/08/11 07:54:22;;;;;;;0.73;0.40;;;;;;;16.46;96.73;100801.22;5029360;28;20663;-57
2023/08/11 07:56:52;;;;;;;0.97;0.30;;;;;;;16.41;97.44;100813.69;5022882;28;20879;-60
2023/08/11 07:59:24;;;;;;;0.20;0.20;;;;;;;16.33;97.43;100817.41;5049937;28;20309;-61
2023/08/11 08:01:55;;;;;;;0.37;0.37;;;;;;;16.31;98.29;100821.88;5044751;28;20270;-61
2023/08/11 08:04:25;;;;;;;0.87;0.60;;;;;;;16.23;97.63;100810.72;5073843;28;20294;-60
2023/08/11 08:06:57;;;;;;;0.40;0.40;;;;;;;16.17;97.78;100808.25;5073090;28;20737;-60
2023/08/11 08:09:27;;;;;;;1.17;0.50;;;;;;;16.11;98.99;100816.34;5073093;28;20336;-60
2023/08/11 08:11:58;;;;;;;0.67;0.60;;;;;;;16.31;99.43;100816.59;5073516;28;20262;-60
2023/08/11 08:14:30;;;;;;;1.60;0.50;;;;;;;16.52;98.30;100808.91;5033340;28;20316;-60
2023/08/11 08:17:02;;;;;;;0.90;0.53;;;;;;;16.78;97.62;100829.22;5019233;28;20302;-59
2023/08/11 08:19:33;;;;;;;1.03;0.53;;;;;;;16.90;95.68;100812.09;5030435;28;20757;-59
2023/08/11 08:22:03;;;;;;;3.00;0.60;;;;;;;17.06;94.68;100823.84;5020690;28;20348;-60
2023/08/11 08:24:34;;;;;;;2.90;0.40;;;;;;;17.03;93.51;100819.56;5044710;28;20393;-59
2023/08/11 08:27:05;;;;;;;0.40;0.40;;;;;;;17.11;94.30;100815.78;5019597;28;20809;-59
2023/08/11 08:29:38;;;;;;;0.97;0.60;;;;;;;17.10;92.52;100835.16;5053394;28;20360;-58
2023/08/11 08:32:09;;;;;;;1.93;0.80;;;;;;;17.21;93.96;100833.88;5019382;28;20286;-58
2023/08/11 08:34:40;;;;;;;1.63;0.87;;;;;;;17.34;95.01;100839.59;5030787;28;20278;-58
2023/08/11 08:37:10;;;;;;;1.57;0.80;;;;;;;17.30;90.46;100838.00;5020457;28;20271;-59
2023/08/11 08:39:41;;;;;;;2.27;0.70;;;;;;;17.20;91.52;100832.19;5035087;28;20291;-58
2023/08/11 08:42:13;;;;;;;2.50;0.63;;;;;;;17.18;91.61;100826.09;5023565;28;20673;-58
2023/08/11 08:44:46;;;;;;;1.90;0.80;;;;;;;17.18;93.52;100820.81;5033137;28;20333;-57
2023/08/11 08:47:19;;;;;;;1.23;0.80;;;;;;;17.15;95.93;100807.72;5023274;28;20378;-57
2023/08/11 08:49:50;;;;;;;3.30;0.70;;;;;;;17.01;93.37;100809.97;5032666;28;20310;-57
2023/08/11 08:52:22;;;;;;;1.40;0.77;;;;;;;16.95;91.82;100818.97;5025036;28;20275;-57
2023/08/11 08:54:53;;;;;;;0.80;0.60;;;;;;;16.98;91.50;100831.19;5023427;28;20308;-58
2023/08/11 08:57:26;;;;;;;1.30;0.70;;;;;;;16.87;91.38;100833.31;5027817;28;21110;-58
2023/08/11 08:59:59;;;;;;;1.47;0.80;;;;;;;16.67;91.84;100826.88;5020533;28;20294;-58
2023/08/11 09:02:45;;;;;;;0.50;0.50;;;;;;;16.34;93.33;100840.22;5033061;28;20419;-58
2023/08/11 09:05:19;;;;;;;2.23;0.60;;;;;;;16.06;94.93;100829.66;5013925;28;20299;-58
2023/08/11 09:07:52;;;;;;;4.10;1.10;;;;;;;15.87;98.26;100831.13;5032538;28;20940;-58
2023/08/11 09:10:24;;;;;;;1.93;0.80;;;;;;;15.74;99.23;100833.25;5023265;28;20841;-58
2023/08/11 09:12:54;;;;;;;1.47;0.70;;;;;;;15.66;100.00;100832.56;5023873;28;20297;-57
2023/08/11 09:15:37;;;;;;;2.80;1.00;;;;;;;15.57;100.00;100830.19;5033238;28;20825;-57
2023/08/11 09:18:24;;;;;;;4.40;1.60;;;;;;;15.36;100.00;100826.41;5024165;28;20344;-58
2023/08/11 09:20:55;;;;;;;2.93;1.43;;;;;;;15.11;100.00;100837.56;5020929;28;20653;-58
2023/08/11 09:23:33;;;;;;;2.53;1.70;;;;;;;14.88;100.00;100836.38;5033368;28;20327;-58
2023/08/11 09:26:04;;;;;;;2.17;1.50;;;;;;;14.73;100.00;100841.19;5022560;28;20275;-58
2023/08/11 09:29:03;;;;;;;5.10;1.33;;;;;;;14.62;100.00;100844.03;5033065;28;20307;-58
2023/08/11 09:31:59;;;;;;;2.83;1.40;;;;;;;14.50;100.00;100850.41;5029196;28;20292;-57
2023/08/11 09:34:30;;;;;;;3.43;1.53;;;;;;;14.44;100.00;100845.31;5022123;28;20290;-57
2023/08/11 09:37:53;;;;;;;;;;;;;;;;;;;;;
2023/08/11 09:41:02;;;;;;;4.87;1.87;;;;;;;14.32;100.00;100866.63;5032631;28;20572;-58
2023/08/11 09:43:36;;;;;;;3.27;1.50;;;;;;;14.24;100.00;100867.66;5016367;28;20311;-58
2023/08/11 09:46:11;;;;;;;2.93;2.00;;;;;;;14.18;100.00;100854.66;5009858;28;20383;-57
2023/08/11 09:49:02;;;;;;;6.90;1.90;;;;;;;14.11;100.00;100868.81;5010702;28;20284;-58
2023/08/11 09:51:49;;;;;;;4.23;1.80;;;;;;;14.02;100.00;100875.13;5013482;28;20280;-59
2023/08/11 09:54:35;;;;;;;6.07;1.67;;;;;;;13.94;100.00;100876.19;5003744;28;20296;-58
2023/08/11 09:57:12;;;;;;;10.90;2.23;;;;;;;13.82;100.00;100872.91;5016152;28;20303;-58
2023/08/11 09:59:48;;;;;;;4.60;2.17;;;;;;;13.89;100.00;100883.28;5022008;28;20319;-58
2023/08/11 10:06:05;;;;;;;4.53;2.10;;;;;;;13.88;100.00;100897.31;4966135;28;20300;-58
2023/08/11 10:08:42;;;;;;;5.70;2.50;;;;;;;13.73;100.00;100870.47;4971292;28;20304;-59
2023/08/11 10:11:22;;;;;;;6.67;3.00;;;;;;;13.82;100.00;100904.41;4961364;28;20281;-58
2023/08/11 10:14:18;;;;;;;6.50;2.40;;;;;;;13.78;100.00;100892.25;4959698;28;21237;-57
2023/08/11 10:17:11;;;;;;;5.03;2.40;;;;;;;13.76;100.00;100893.19;4959410;28;20292;-57
2023/08/11 10:19:55;;;;;;;5.33;2.90;;;;;;;13.56;100.00;100856.81;4970437;28;20297;-56
2023/08/11 10:22:30;;;;;;;7.43;2.57;;;;;;;13.84;100.00;100890.41;4961608;28;20333;-59
2023/08/11 10:25:11;;;;;;;4.67;2.30;;;;;;;13.89;100.00;100905.16;4960702;28;20296;-58
2023/08/11 10:27:44;;;;;;;6.67;3.07;;;;;;;13.99;100.00;100900.59;4970405;28;20402;-58
2023/08/11 10:30:16;;;;;;;7.00;2.80;;;;;;;13.99;100.00;100901.47;4960770;28;21264;-58
2023/08/11 10:32:47;;;;;;;7.87;3.23;;;;;;;13.96;100.00;100890.16;4971750;28;20289;-58
2023/08/11 10:35:21;;;;;;;8.17;3.50;;;;;;;13.93;100.00;100898.13;4960190;28;20289;-58
2023/08/11 10:38:10;;;;;;;6.63;3.30;;;;;;;14.04;100.00;100909.25;4965596;28;20289;-58
2023/08/11 10:40:48;;;;;;;6.00;3.13;;;;;;;14.13;100.00;100903.81;4970549;28;20296;-58
2023/08/11 10:43:37;;;;;;;7.63;3.57;;;;;;;14.19;100.00;100911.56;4956355;28;20289;-59
2023/08/11 10:46:27;;;;;;;6.70;3.00;;;;;;;14.15;100.00;100909.91;4960113;28;20343;-58
2023/08/11 10:49:20;;;;;;;7.43;3.03;;;;;;;14.08;100.00;100904.78;4977698;28;20303;-58
2023/08/11 10:51:57;;;;;;;5.93;3.40;;;;;;;14.12;100.00;100907.31;5001114;28;20814;-59
2023/08/11 10:54:29;;;;;;;9.67;3.83;;;;;;;14.15;100.00;100907.28;5011870;28;20293;-58
2023/08/11 10:57:07;;;;;;;6.73;2.90;;;;;;;14.12;100.00;100899.44;5001903;28;20299;-56
2023/08/11 10:59:41;;;;;;;4.97;3.27;;;;;;;14.18;100.00;100916.88;5011701;28;20279;-58
2023/08/11 11:02:21;;;;;;;9.97;3.97;;;;;;;14.13;100.00;100903.81;5019389;28;20291;-58
2023/08/11 11:04:56;;;;;;;10.23;3.90;;;;;;;14.14;100.00;100916.06;5024985;28;20279;-56
2023/08/11 11:07:27;;;;;;;8.83;3.60;;;;;;;14.12;100.00;100923.09;5032439;28;20302;-58
2023/08/11 11:10:03;;;;;;;9.77;4.30;;;;;;;14.10;100.00;100909.13;5024485;28;20264;-59
2023/08/11 11:12:37;;;;;;;6.97;3.40;;;;;;;14.10;100.00;100901.22;5035587;28;20311;-60
2023/08/11 11:15:08;;;;;;;6.97;3.37;;;;;;;14.08;100.00;100915.31;5024675;28;20295;-60
2023/08/11 11:17:40;;;;;;;9.07;3.97;;;;;;;14.10;100.00;100914.38;5030287;28;20675;-58
2023/08/11 11:20:16;;;;;;;12.80;4.87;;;;;;;14.09;100.00;100912.66;5021394;28;20352;-59
2023/08/11 11:22:53;;;;;;;8.20;4.13;;;;;;;14.08;100.00;100910.94;5032374;28;20301;-58
2023/08/11 11:25:25;;;;;;;10.20;4.57;;;;;;;14.04;100.00;100914.50;4992768;28;20306;-58
2023/08/11 11:27:59;;;;;;;12.17;4.57;;;;;;;14.00;100.00;100913.72;5000366;28;20622;-60
2023/08/11 11:30:30;;;;;;;12.13;4.90;;;;;;;13.94;100.00;100905.09;5012073;28;20284;-59
2023/08/11 11:33:00;;;;;;;13.20;4.80;;;;;;;13.88;100.00;100897.31;5011046;28;20342;-58
2023/08/11 11:35:34;;;;;;;10.70;3.87;;;;;;;13.90;100.00;100908.66;5043038;28;20326;-59
2023/08/11 11:38:07;;;;;;;15.43;5.43;;;;;;;13.85;100.00;100913.13;5006797;28;20346;-59
2023/08/11 11:40:53;;;;;;;11.43;5.30;;;;;;;13.87;100.00;100912.22;5025348;28;20287;-58
2023/08/11 11:43:29;;;;;;;15.18;5.28;;;;;;;13.85;100.00;100907.88;5013522;28;20647;-61
2023/08/11 11:46:14;;;;;;;15.40;5.90;;;;;;;13.84;100.00;100912.28;5027471;28;20076;-61
2023/08/11 11:48:58;;;;;;;13.93;5.70;;;;;;;13.39;100.00;100838.75;5045716;28;20283;-61
2023/08/11 11:51:46;;;;;;;14.00;5.50;;;;;;;13.89;100.00;100935.84;5046732;28;20274;-60
2023/08/11 11:54:22;;;;;;;13.23;5.13;;;;;;;13.91;100.00;100934.91;5018851;28;20287;-59